sensor_id;sensor_type;location;lat;lon;timestamp;P1;durP1;ratioP1;P2;durP2;ratioP2
42514;SDS011;28144;49.920;18.730;2023-06-04T00:00:32;14.40;;;4.83;;
42514;SDS011;28144;49.920;18.730;2023-06-04T00:03:17;12.40;;;4.20;;
42514;SDS011;28144;49.920;18.730;2023-06-04T00:05:43;12.20;;;4.33;;
42514;SDS011;28144;49.920;18.730;2023-06-04T00:08:08;9.00;;;4.10;;
42514;SDS011;28144;49.920;18.730;2023-06-04T00:10:34;17.30;;;4.87;;
42514;SDS011;28144;49.920;18.730;2023-06-04T00:13:00;9.57;;;5.00;;
42514;SDS011;28144;49.920;18.730;2023-06-04T00:15:26;12.02;;;4.72;;
42514;SDS011;28144;49.920;18.730;2023-06-04T00:17:52;10.30;;;4.93;;
42514;SDS011;28144;49.920;18.730;2023-06-04T00:20:18;8.93;;;4.38;;
42514;SDS011;28144;49.920;18.730;2023-06-04T00:22:43;9.13;;;5.43;;
42514;SDS011;28144;49.920;18.730;2023-06-04T00:25:09;12.55;;;4.88;;
42514;SDS011;28144;49.920;18.730;2023-06-04T00:27:35;8.40;;;4.43;;
42514;SDS011;28144;49.920;18.730;2023-06-04T00:30:02;13.95;;;5.65;;
42514;SDS011;28144;49.920;18.730;2023-06-04T00:34:55;7.47;;;3.90;;
42514;SDS011;28144;49.920;18.730;2023-06-04T00:37:23;10.43;;;4.30;;
42514;SDS011;28144;49.920;18.730;2023-06-04T00:39:50;9.23;;;4.00;;
42514;SDS011;28144;49.920;18.730;2023-06-04T00:42:16;12.77;;;5.28;;
42514;SDS011;28144;49.920;18.730;2023-06-04T00:44:42;16.42;;;4.57;;
42514;SDS011;28144;49.920;18.730;2023-06-04T00:47:13;11.80;;;4.30;;
42514;SDS011;28144;49.920;18.730;2023-06-04T00:49:42;11.87;;;4.50;;
42514;SDS011;28144;49.920;18.730;2023-06-04T00:52:14;11.13;;;4.37;;
42514;SDS011;28144;49.920;18.730;2023-06-04T00:54:41;10.00;;;4.17;;
42514;SDS011;28144;49.920;18.730;2023-06-04T00:57:07;11.90;;;4.00;;
42514;SDS011;28144;49.920;18.730;2023-06-04T01:02:17;19.02;;;5.13;;
42514;SDS011;28144;49.920;18.730;2023-06-04T01:04:51;11.43;;;4.50;;
42514;SDS011;28144;49.920;18.730;2023-06-04T01:07:25;15.97;;;5.47;;
42514;SDS011;28144;49.920;18.730;2023-06-04T01:09:53;12.67;;;4.70;;
42514;SDS011;28144;49.920;18.730;2023-06-04T01:12:18;10.43;;;4.87;;
42514;SDS011;28144;49.920;18.730;2023-06-04T01:14:44;11.00;;;4.70;;
42514;SDS011;28144;49.920;18.730;2023-06-04T01:17:15;11.93;;;5.20;;
42514;SDS011;28144;49.920;18.730;2023-06-04T01:19:51;12.17;;;5.33;;
42514;SDS011;28144;49.920;18.730;2023-06-04T01:27:47;10.60;;;4.33;;
42514;SDS011;28144;49.920;18.730;2023-06-04T01:30:15;10.40;;;4.80;;
42514;SDS011;28144;49.920;18.730;2023-06-04T01:32:41;14.50;;;6.32;;
42514;SDS011;28144;49.920;18.730;2023-06-04T01:35:08;14.90;;;6.25;;
42514;SDS011;28144;49.920;18.730;2023-06-04T01:37:36;17.00;;;6.17;;
42514;SDS011;28144;49.920;18.730;2023-06-04T01:40:03;18.33;;;5.70;;
42514;SDS011;28144;49.920;18.730;2023-06-04T01:42:30;13.73;;;5.50;;
42514;SDS011;28144;49.920;18.730;2023-06-04T01:44:56;12.47;;;5.10;;
42514;SDS011;28144;49.920;18.730;2023-06-04T01:47:21;12.87;;;5.00;;
42514;SDS011;28144;49.920;18.730;2023-06-04T01:49:47;10.75;;;5.00;;
42514;SDS011;28144;49.920;18.730;2023-06-04T01:52:13;11.03;;;5.03;;
42514;SDS011;28144;49.920;18.730;2023-06-04T01:54:38;15.43;;;6.07;;
42514;SDS011;28144;49.920;18.730;2023-06-04T01:57:04;12.53;;;5.77;;
42514;SDS011;28144;49.920;18.730;2023-06-04T01:59:31;11.90;;;4.20;;
42514;SDS011;28144;49.920;18.730;2023-06-04T02:01:59;14.43;;;5.70;;
42514;SDS011;28144;49.920;18.730;2023-06-04T02:04:27;11.23;;;5.30;;
42514;SDS011;28144;49.920;18.730;2023-06-04T02:06:53;12.17;;;5.53;;
42514;SDS011;28144;49.920;18.730;2023-06-04T02:09:18;10.30;;;5.33;;
42514;SDS011;28144;49.920;18.730;2023-06-04T02:11:44;11.53;;;5.73;;
42514;SDS011;28144;49.920;18.730;2023-06-04T02:14:10;15.37;;;5.67;;
42514;SDS011;28144;49.920;18.730;2023-06-04T02:16:35;11.17;;;4.70;;
42514;SDS011;28144;49.920;18.730;2023-06-04T02:19:03;10.10;;;4.63;;
42514;SDS011;28144;49.920;18.730;2023-06-04T02:21:28;10.90;;;5.00;;
42514;SDS011;28144;49.920;18.730;2023-06-04T02:23:54;10.83;;;5.43;;
42514;SDS011;28144;49.920;18.730;2023-06-04T02:26:20;15.03;;;5.63;;
42514;SDS011;28144;49.920;18.730;2023-06-04T02:28:45;8.77;;;4.97;;
42514;SDS011;28144;49.920;18.730;2023-06-04T02:31:11;10.97;;;4.50;;
42514;SDS011;28144;49.920;18.730;2023-06-04T02:33:37;15.03;;;4.97;;
42514;SDS011;28144;49.920;18.730;2023-06-04T02:36:03;9.85;;;4.20;;
42514;SDS011;28144;49.920;18.730;2023-06-04T02:38:29;17.98;;;5.82;;
42514;SDS011;28144;49.920;18.730;2023-06-04T02:40:54;13.27;;;5.93;;
42514;SDS011;28144;49.920;18.730;2023-06-04T02:43:20;12.47;;;5.23;;
42514;SDS011;28144;49.920;18.730;2023-06-04T02:45:46;11.10;;;6.37;;
42514;SDS011;28144;49.920;18.730;2023-06-04T02:48:12;11.80;;;6.00;;
42514;SDS011;28144;49.920;18.730;2023-06-04T02:50:37;9.97;;;4.77;;
42514;SDS011;28144;49.920;18.730;2023-06-04T02:53:04;12.27;;;5.15;;
42514;SDS011;28144;49.920;18.730;2023-06-04T02:55:29;17.23;;;5.37;;
42514;SDS011;28144;49.920;18.730;2023-06-04T02:57:55;11.93;;;5.27;;
42514;SDS011;28144;49.920;18.730;2023-06-04T03:00:21;18.33;;;5.80;;
42514;SDS011;28144;49.920;18.730;2023-06-04T03:02:47;12.90;;;5.00;;
42514;SDS011;28144;49.920;18.730;2023-06-04T03:05:14;12.25;;;5.20;;
42514;SDS011;28144;49.920;18.730;2023-06-04T03:07:43;10.87;;;4.80;;
42514;SDS011;28144;49.920;18.730;2023-06-04T03:10:10;13.40;;;5.10;;
42514;SDS011;28144;49.920;18.730;2023-06-04T03:12:37;10.50;;;4.73;;
42514;SDS011;28144;49.920;18.730;2023-06-04T03:15:02;16.17;;;5.03;;
42514;SDS011;28144;49.920;18.730;2023-06-04T03:17:29;11.18;;;4.90;;
42514;SDS011;28144;49.920;18.730;2023-06-04T03:19:56;9.83;;;5.30;;
42514;SDS011;28144;49.920;18.730;2023-06-04T03:22:22;9.60;;;5.27;;
42514;SDS011;28144;49.920;18.730;2023-06-04T03:24:48;8.63;;;4.20;;
42514;SDS011;28144;49.920;18.730;2023-06-04T03:27:14;14.70;;;6.10;;
42514;SDS011;28144;49.920;18.730;2023-06-04T03:29:39;9.90;;;4.80;;
42514;SDS011;28144;49.920;18.730;2023-06-04T03:32:05;13.30;;;5.60;;
42514;SDS011;28144;49.920;18.730;2023-06-04T03:34:33;10.00;;;4.53;;
42514;SDS011;28144;49.920;18.730;2023-06-04T03:36:59;9.87;;;4.57;;
42514;SDS011;28144;49.920;18.730;2023-06-04T03:39:25;10.33;;;4.60;;
42514;SDS011;28144;49.920;18.730;2023-06-04T03:41:51;9.70;;;4.90;;
42514;SDS011;28144;49.920;18.730;2023-06-04T03:44:17;9.93;;;4.20;;
42514;SDS011;28144;49.920;18.730;2023-06-04T03:46:43;11.53;;;4.67;;
42514;SDS011;28144;49.920;18.730;2023-06-04T03:49:10;8.82;;;4.57;;
42514;SDS011;28144;49.920;18.730;2023-06-04T03:51:36;9.60;;;4.65;;
42514;SDS011;28144;49.920;18.730;2023-06-04T03:54:02;11.27;;;5.20;;
42514;SDS011;28144;49.920;18.730;2023-06-04T03:56:29;10.15;;;5.20;;
42514;SDS011;28144;49.920;18.730;2023-06-04T03:58:54;12.17;;;5.23;;
42514;SDS011;28144;49.920;18.730;2023-06-04T04:01:21;14.10;;;4.63;;
42514;SDS011;28144;49.920;18.730;2023-06-04T04:03:46;9.83;;;5.20;;
42514;SDS011;28144;49.920;18.730;2023-06-04T04:06:14;9.63;;;4.97;;
42514;SDS011;28144;49.920;18.730;2023-06-04T04:08:40;11.10;;;4.57;;
42514;SDS011;28144;49.920;18.730;2023-06-04T04:11:08;11.90;;;4.50;;
42514;SDS011;28144;49.920;18.730;2023-06-04T04:13:33;10.30;;;4.73;;
42514;SDS011;28144;49.920;18.730;2023-06-04T04:15:59;12.88;;;4.95;;
42514;SDS011;28144;49.920;18.730;2023-06-04T04:18:25;12.03;;;4.63;;
42514;SDS011;28144;49.920;18.730;2023-06-04T04:20:51;8.47;;;4.90;;
42514;SDS011;28144;49.920;18.730;2023-06-04T04:23:17;11.10;;;4.80;;
42514;SDS011;28144;49.920;18.730;2023-06-04T04:25:43;7.97;;;4.33;;
42514;SDS011;28144;49.920;18.730;2023-06-04T04:28:13;10.93;;;4.50;;
42514;SDS011;28144;49.920;18.730;2023-06-04T04:30:40;9.02;;;4.10;;
42514;SDS011;28144;49.920;18.730;2023-06-04T04:33:05;10.30;;;4.93;;
42514;SDS011;28144;49.920;18.730;2023-06-04T04:35:31;10.48;;;5.38;;
42514;SDS011;28144;49.920;18.730;2023-06-04T04:37:58;9.57;;;5.10;;
42514;SDS011;28144;49.920;18.730;2023-06-04T04:40:24;9.50;;;4.82;;
42514;SDS011;28144;49.920;18.730;2023-06-04T04:42:50;10.75;;;4.45;;
42514;SDS011;28144;49.920;18.730;2023-06-04T04:45:16;11.27;;;5.13;;
42514;SDS011;28144;49.920;18.730;2023-06-04T04:47:42;11.65;;;4.07;;
42514;SDS011;28144;49.920;18.730;2023-06-04T04:50:08;8.97;;;4.50;;
42514;SDS011;28144;49.920;18.730;2023-06-04T04:52:34;17.95;;;5.03;;
42514;SDS011;28144;49.920;18.730;2023-06-04T04:55:00;10.47;;;5.23;;
42514;SDS011;28144;49.920;18.730;2023-06-04T04:57:26;11.30;;;5.60;;
42514;SDS011;28144;49.920;18.730;2023-06-04T04:59:51;9.67;;;4.90;;
42514;SDS011;28144;49.920;18.730;2023-06-04T05:02:17;13.73;;;5.47;;
42514;SDS011;28144;49.920;18.730;2023-06-04T05:04:43;10.50;;;4.73;;
42514;SDS011;28144;49.920;18.730;2023-06-04T05:07:09;8.90;;;4.70;;
42514;SDS011;28144;49.920;18.730;2023-06-04T05:09:34;11.65;;;5.38;;
42514;SDS011;28144;49.920;18.730;2023-06-04T05:12:00;15.97;;;6.43;;
42514;SDS011;28144;49.920;18.730;2023-06-04T05:14:27;11.55;;;5.32;;
42514;SDS011;28144;49.920;18.730;2023-06-04T05:16:54;13.75;;;5.50;;
42514;SDS011;28144;49.920;18.730;2023-06-04T05:19:22;13.73;;;4.60;;
42514;SDS011;28144;49.920;18.730;2023-06-04T05:21:48;8.38;;;5.15;;
42514;SDS011;28144;49.920;18.730;2023-06-04T05:24:14;13.05;;;6.38;;
42514;SDS011;28144;49.920;18.730;2023-06-04T05:26:40;11.97;;;5.43;;
42514;SDS011;28144;49.920;18.730;2023-06-04T05:29:06;9.18;;;4.82;;
42514;SDS011;28144;49.920;18.730;2023-06-04T05:31:32;17.33;;;6.63;;
42514;SDS011;28144;49.920;18.730;2023-06-04T05:34:00;9.93;;;4.63;;
42514;SDS011;28144;49.920;18.730;2023-06-04T05:36:36;8.90;;;4.75;;
42514;SDS011;28144;49.920;18.730;2023-06-04T05:39:02;7.35;;;4.55;;
42514;SDS011;28144;49.920;18.730;2023-06-04T05:41:29;12.60;;;5.63;;
42514;SDS011;28144;49.920;18.730;2023-06-04T05:43:55;7.97;;;4.63;;
42514;SDS011;28144;49.920;18.730;2023-06-04T05:46:20;14.57;;;4.70;;
42514;SDS011;28144;49.920;18.730;2023-06-04T05:48:47;10.43;;;4.38;;
42514;SDS011;28144;49.920;18.730;2023-06-04T05:51:13;10.57;;;5.00;;
42514;SDS011;28144;49.920;18.730;2023-06-04T05:53:39;12.73;;;4.85;;
42514;SDS011;28144;49.920;18.730;2023-06-04T05:56:05;9.17;;;4.70;;
42514;SDS011;28144;49.920;18.730;2023-06-04T05:58:32;9.90;;;4.37;;
42514;SDS011;28144;49.920;18.730;2023-06-04T06:00:58;8.65;;;4.15;;
42514;SDS011;28144;49.920;18.730;2023-06-04T06:03:24;7.03;;;3.27;;
42514;SDS011;28144;49.920;18.730;2023-06-04T06:05:52;11.02;;;4.35;;
42514;SDS011;28144;49.920;18.730;2023-06-04T06:08:18;9.32;;;3.70;;
42514;SDS011;28144;49.920;18.730;2023-06-04T06:10:43;9.60;;;4.10;;
42514;SDS011;28144;49.920;18.730;2023-06-04T06:13:09;10.93;;;3.97;;
42514;SDS011;28144;49.920;18.730;2023-06-04T06:15:35;7.73;;;3.80;;
42514;SDS011;28144;49.920;18.730;2023-06-04T06:18:01;10.60;;;4.10;;
42514;SDS011;28144;49.920;18.730;2023-06-04T06:20:27;11.50;;;4.13;;
42514;SDS011;28144;49.920;18.730;2023-06-04T06:22:54;6.85;;;3.88;;
42514;SDS011;28144;49.920;18.730;2023-06-04T06:25:21;5.93;;;4.10;;
42514;SDS011;28144;49.920;18.730;2023-06-04T06:27:47;9.07;;;3.83;;
42514;SDS011;28144;49.920;18.730;2023-06-04T06:30:13;8.07;;;4.30;;
42514;SDS011;28144;49.920;18.730;2023-06-04T06:32:40;6.93;;;3.63;;
42514;SDS011;28144;49.920;18.730;2023-06-04T06:35:05;14.00;;;4.97;;
42514;SDS011;28144;49.920;18.730;2023-06-04T06:37:33;8.52;;;3.90;;
42514;SDS011;28144;49.920;18.730;2023-06-04T06:43:39;10.82;;;4.07;;
42514;SDS011;28144;49.920;18.730;2023-06-04T06:46:05;7.18;;;3.50;;
42514;SDS011;28144;49.920;18.730;2023-06-04T06:48:31;10.03;;;3.53;;
42514;SDS011;28144;49.920;18.730;2023-06-04T06:50:56;4.83;;;3.17;;
42514;SDS011;28144;49.920;18.730;2023-06-04T06:53:23;8.32;;;3.58;;
42514;SDS011;28144;49.920;18.730;2023-06-04T06:55:48;20.92;;;9.73;;
42514;SDS011;28144;49.920;18.730;2023-06-04T06:58:14;10.47;;;3.90;;
42514;SDS011;28144;49.920;18.730;2023-06-04T07:00:40;12.55;;;3.13;;
42514;SDS011;28144;49.920;18.730;2023-06-04T07:03:06;8.83;;;3.97;;
42514;SDS011;28144;49.920;18.730;2023-06-04T07:05:34;10.07;;;3.63;;
42514;SDS011;28144;49.920;18.730;2023-06-04T07:07:59;10.82;;;3.70;;
42514;SDS011;28144;49.920;18.730;2023-06-04T07:10:27;8.30;;;3.95;;
42514;SDS011;28144;49.920;18.730;2023-06-04T07:12:53;12.73;;;3.93;;
42514;SDS011;28144;49.920;18.730;2023-06-04T07:15:19;9.20;;;4.25;;
42514;SDS011;28144;49.920;18.730;2023-06-04T07:17:44;17.17;;;3.78;;
42514;SDS011;28144;49.920;18.730;2023-06-04T07:20:10;11.32;;;4.05;;
42514;SDS011;28144;49.920;18.730;2023-06-04T07:22:37;6.10;;;3.53;;
42514;SDS011;28144;49.920;18.730;2023-06-04T07:25:04;6.47;;;3.67;;
42514;SDS011;28144;49.920;18.730;2023-06-04T07:29:56;11.38;;;3.55;;
42514;SDS011;28144;49.920;18.730;2023-06-04T07:36:02;8.68;;;3.67;;
42514;SDS011;28144;49.920;18.730;2023-06-04T07:38:28;8.40;;;3.53;;
42514;SDS011;28144;49.920;18.730;2023-06-04T07:40:54;5.37;;;2.80;;
42514;SDS011;28144;49.920;18.730;2023-06-04T07:43:20;9.45;;;3.05;;
42514;SDS011;28144;49.920;18.730;2023-06-04T07:45:46;4.67;;;2.80;;
42514;SDS011;28144;49.920;18.730;2023-06-04T07:48:13;8.80;;;3.08;;
42514;SDS011;28144;49.920;18.730;2023-06-04T07:50:38;8.47;;;2.77;;
42514;SDS011;28144;49.920;18.730;2023-06-04T07:53:05;5.82;;;2.90;;
42514;SDS011;28144;49.920;18.730;2023-06-04T07:55:31;7.55;;;2.83;;
42514;SDS011;28144;49.920;18.730;2023-06-04T07:57:59;7.10;;;2.97;;
42514;SDS011;28144;49.920;18.730;2023-06-04T08:00:24;5.20;;;2.77;;
42514;SDS011;28144;49.920;18.730;2023-06-04T08:02:50;7.18;;;2.75;;
42514;SDS011;28144;49.920;18.730;2023-06-04T08:05:17;6.70;;;3.25;;
42514;SDS011;28144;49.920;18.730;2023-06-04T08:07:43;8.93;;;2.90;;
42514;SDS011;28144;49.920;18.730;2023-06-04T08:10:09;5.10;;;2.80;;
42514;SDS011;28144;49.920;18.730;2023-06-04T08:12:36;8.52;;;3.00;;
42514;SDS011;28144;49.920;18.730;2023-06-04T08:15:01;9.43;;;3.13;;
42514;SDS011;28144;49.920;18.730;2023-06-04T08:17:27;12.45;;;4.03;;
42514;SDS011;28144;49.920;18.730;2023-06-04T08:19:53;7.77;;;3.10;;
42514;SDS011;28144;49.920;18.730;2023-06-04T08:22:18;5.43;;;2.78;;
42514;SDS011;28144;49.920;18.730;2023-06-04T08:24:44;5.57;;;3.15;;
42514;SDS011;28144;49.920;18.730;2023-06-04T08:27:10;5.30;;;2.60;;
42514;SDS011;28144;49.920;18.730;2023-06-04T08:29:36;6.10;;;2.70;;
42514;SDS011;28144;49.920;18.730;2023-06-04T08:32:06;9.93;;;3.53;;
42514;SDS011;28144;49.920;18.730;2023-06-04T08:34:32;9.63;;;3.63;;
42514;SDS011;28144;49.920;18.730;2023-06-04T08:36:58;7.55;;;2.25;;
42514;SDS011;28144;49.920;18.730;2023-06-04T08:39:24;7.20;;;3.00;;
42514;SDS011;28144;49.920;18.730;2023-06-04T08:41:54;8.20;;;3.13;;
42514;SDS011;28144;49.920;18.730;2023-06-04T08:44:22;9.60;;;2.90;;
42514;SDS011;28144;49.920;18.730;2023-06-04T08:46:51;9.88;;;2.55;;
42514;SDS011;28144;49.920;18.730;2023-06-04T08:49:18;7.45;;;2.78;;
42514;SDS011;28144;49.920;18.730;2023-06-04T08:51:47;12.75;;;3.08;;
42514;SDS011;28144;49.920;18.730;2023-06-04T08:54:12;5.78;;;2.70;;
42514;SDS011;28144;49.920;18.730;2023-06-04T08:56:41;5.57;;;1.92;;
42514;SDS011;28144;49.920;18.730;2023-06-04T08:59:12;3.17;;;1.67;;
42514;SDS011;28144;49.920;18.730;2023-06-04T09:01:39;7.03;;;1.90;;
42514;SDS011;28144;49.920;18.730;2023-06-04T09:04:07;2.83;;;1.70;;
42514;SDS011;28144;49.920;18.730;2023-06-04T09:06:33;5.13;;;2.67;;
42514;SDS011;28144;49.920;18.730;2023-06-04T09:08:59;6.73;;;2.33;;
42514;SDS011;28144;49.920;18.730;2023-06-04T09:11:36;9.32;;;2.45;;
42514;SDS011;28144;49.920;18.730;2023-06-04T09:14:15;4.55;;;1.80;;
42514;SDS011;28144;49.920;18.730;2023-06-04T09:16:47;4.07;;;2.00;;
42514;SDS011;28144;49.920;18.730;2023-06-04T09:19:17;4.97;;;1.92;;
42514;SDS011;28144;49.920;18.730;2023-06-04T09:24:46;6.28;;;1.88;;
42514;SDS011;28144;49.920;18.730;2023-06-04T09:27:17;3.83;;;1.98;;
42514;SDS011;28144;49.920;18.730;2023-06-04T09:29:53;2.70;;;1.50;;
42514;SDS011;28144;49.920;18.730;2023-06-04T09:32:24;4.32;;;2.17;;
42514;SDS011;28144;49.920;18.730;2023-06-04T09:34:51;4.97;;;1.90;;
42514;SDS011;28144;49.920;18.730;2023-06-04T09:37:18;5.40;;;1.90;;
42514;SDS011;28144;49.920;18.730;2023-06-04T09:39:52;14.52;;;2.72;;
42514;SDS011;28144;49.920;18.730;2023-06-04T09:42:19;3.55;;;1.80;;
42514;SDS011;28144;49.920;18.730;2023-06-04T09:44:45;5.13;;;2.10;;
42514;SDS011;28144;49.920;18.730;2023-06-04T09:47:16;3.20;;;1.90;;
42514;SDS011;28144;49.920;18.730;2023-06-04T09:52:08;7.90;;;2.05;;
42514;SDS011;28144;49.920;18.730;2023-06-04T09:54:38;5.47;;;1.80;;
42514;SDS011;28144;49.920;18.730;2023-06-04T09:57:05;4.43;;;1.85;;
42514;SDS011;28144;49.920;18.730;2023-06-04T10:02:01;5.93;;;1.83;;
42514;SDS011;28144;49.920;18.730;2023-06-04T10:04:27;5.05;;;2.30;;
42514;SDS011;28144;49.920;18.730;2023-06-04T10:06:53;9.55;;;2.92;;
42514;SDS011;28144;49.920;18.730;2023-06-04T10:09:19;3.40;;;1.73;;
42514;SDS011;28144;49.920;18.730;2023-06-04T10:11:47;5.65;;;2.10;;
42514;SDS011;28144;49.920;18.730;2023-06-04T10:14:22;4.82;;;2.30;;
42514;SDS011;28144;49.920;18.730;2023-06-04T10:16:50;6.32;;;2.35;;
42514;SDS011;28144;49.920;18.730;2023-06-04T10:19:16;7.50;;;2.00;;
42514;SDS011;28144;49.920;18.730;2023-06-04T10:21:43;6.30;;;2.28;;
42514;SDS011;28144;49.920;18.730;2023-06-04T10:24:09;5.93;;;1.80;;
42514;SDS011;28144;49.920;18.730;2023-06-04T10:26:37;4.68;;;1.90;;
42514;SDS011;28144;49.920;18.730;2023-06-04T10:29:04;5.05;;;2.85;;
42514;SDS011;28144;49.920;18.730;2023-06-04T10:31:31;5.40;;;2.00;;
42514;SDS011;28144;49.920;18.730;2023-06-04T10:33:57;4.03;;;1.88;;
42514;SDS011;28144;49.920;18.730;2023-06-04T10:36:24;6.15;;;2.28;;
42514;SDS011;28144;49.920;18.730;2023-06-04T10:38:51;5.72;;;2.35;;
42514;SDS011;28144;49.920;18.730;2023-06-04T10:41:20;4.88;;;1.90;;
42514;SDS011;28144;49.920;18.730;2023-06-04T10:43:48;3.38;;;2.00;;
42514;SDS011;28144;49.920;18.730;2023-06-04T10:46:18;5.60;;;2.03;;
42514;SDS011;28144;49.920;18.730;2023-06-04T10:48:48;6.07;;;2.08;;
42514;SDS011;28144;49.920;18.730;2023-06-04T10:51:15;6.05;;;3.45;;
42514;SDS011;28144;49.920;18.730;2023-06-04T10:53:41;4.70;;;1.98;;
42514;SDS011;28144;49.920;18.730;2023-06-04T10:56:07;3.30;;;1.67;;
42514;SDS011;28144;49.920;18.730;2023-06-04T10:58:33;5.13;;;1.92;;
42514;SDS011;28144;49.920;18.730;2023-06-04T11:00:59;7.10;;;2.40;;
42514;SDS011;28144;49.920;18.730;2023-06-04T11:03:34;4.10;;;2.08;;
42514;SDS011;28144;49.920;18.730;2023-06-04T11:06:01;4.90;;;1.70;;
42514;SDS011;28144;49.920;18.730;2023-06-04T11:08:28;4.78;;;1.88;;
42514;SDS011;28144;49.920;18.730;2023-06-04T11:10:55;4.55;;;2.00;;
42514;SDS011;28144;49.920;18.730;2023-06-04T11:13:24;8.20;;;1.70;;
42514;SDS011;28144;49.920;18.730;2023-06-04T11:15:53;4.32;;;2.20;;
42514;SDS011;28144;49.920;18.730;2023-06-04T11:18:21;3.50;;;1.90;;
42514;SDS011;28144;49.920;18.730;2023-06-04T11:20:49;6.45;;;1.92;;
42514;SDS011;28144;49.920;18.730;2023-06-04T11:23:16;10.20;;;3.08;;
42514;SDS011;28144;49.920;18.730;2023-06-04T11:25:42;4.68;;;1.85;;
42514;SDS011;28144;49.920;18.730;2023-06-04T11:28:18;4.97;;;1.88;;
42514;SDS011;28144;49.920;18.730;2023-06-04T11:30:59;6.97;;;2.22;;
42514;SDS011;28144;49.920;18.730;2023-06-04T11:33:29;3.83;;;1.75;;
42514;SDS011;28144;49.920;18.730;2023-06-04T11:35:55;6.90;;;2.05;;
42514;SDS011;28144;49.920;18.730;2023-06-04T11:38:21;5.70;;;2.20;;
42514;SDS011;28144;49.920;18.730;2023-06-04T11:40:57;5.25;;;1.90;;
42514;SDS011;28144;49.920;18.730;2023-06-04T11:45:53;3.47;;;1.90;;
42514;SDS011;28144;49.920;18.730;2023-06-04T11:48:18;5.10;;;1.75;;
42514;SDS011;28144;49.920;18.730;2023-06-04T11:50:45;3.88;;;1.98;;
42514;SDS011;28144;49.920;18.730;2023-06-04T11:53:11;5.60;;;2.17;;
42514;SDS011;28144;49.920;18.730;2023-06-04T11:55:38;4.00;;;2.75;;
42514;SDS011;28144;49.920;18.730;2023-06-04T11:58:04;3.38;;;2.13;;
42514;SDS011;28144;49.920;18.730;2023-06-04T12:00:30;5.68;;;2.13;;
42514;SDS011;28144;49.920;18.730;2023-06-04T12:02:56;5.18;;;2.33;;
42514;SDS011;28144;49.920;18.730;2023-06-04T12:05:23;6.30;;;2.42;;
42514;SDS011;28144;49.920;18.730;2023-06-04T12:08:03;3.55;;;1.70;;
42514;SDS011;28144;49.920;18.730;2023-06-04T12:10:36;5.90;;;2.30;;
42514;SDS011;28144;49.920;18.730;2023-06-04T12:13:02;6.88;;;2.03;;
42514;SDS011;28144;49.920;18.730;2023-06-04T12:15:30;6.90;;;1.83;;
42514;SDS011;28144;49.920;18.730;2023-06-04T12:17:55;4.07;;;2.00;;
42514;SDS011;28144;49.920;18.730;2023-06-04T12:20:37;8.80;;;2.17;;
42514;SDS011;28144;49.920;18.730;2023-06-04T12:23:04;4.88;;;2.05;;
42514;SDS011;28144;49.920;18.730;2023-06-04T12:25:31;4.47;;;2.15;;
42514;SDS011;28144;49.920;18.730;2023-06-04T12:27:57;11.73;;;2.00;;
42514;SDS011;28144;49.920;18.730;2023-06-04T12:30:34;2.92;;;2.00;;
42514;SDS011;28144;49.920;18.730;2023-06-04T12:33:00;7.55;;;2.15;;
42514;SDS011;28144;49.920;18.730;2023-06-04T12:35:26;4.68;;;2.10;;
42514;SDS011;28144;49.920;18.730;2023-06-04T12:37:52;5.18;;;2.30;;
42514;SDS011;28144;49.920;18.730;2023-06-04T12:40:18;2.97;;;1.80;;
42514;SDS011;28144;49.920;18.730;2023-06-04T12:42:43;10.02;;;2.33;;
42514;SDS011;28144;49.920;18.730;2023-06-04T12:45:09;8.23;;;2.28;;
42514;SDS011;28144;49.920;18.730;2023-06-04T12:47:35;4.53;;;2.33;;
42514;SDS011;28144;49.920;18.730;2023-06-04T12:50:01;7.15;;;2.13;;
42514;SDS011;28144;49.920;18.730;2023-06-04T12:54:53;5.35;;;1.98;;
42514;SDS011;28144;49.920;18.730;2023-06-04T12:57:19;4.80;;;2.10;;
42514;SDS011;28144;49.920;18.730;2023-06-04T12:59:45;9.30;;;2.33;;
42514;SDS011;28144;49.920;18.730;2023-06-04T13:02:10;5.70;;;2.15;;
42514;SDS011;28144;49.920;18.730;2023-06-04T13:07:02;4.43;;;2.15;;
42514;SDS011;28144;49.920;18.730;2023-06-04T13:09:28;6.82;;;3.17;;
42514;SDS011;28144;49.920;18.730;2023-06-04T13:11:54;9.77;;;5.43;;
42514;SDS011;28144;49.920;18.730;2023-06-04T13:14:20;9.50;;;6.22;;
42514;SDS011;28144;49.920;18.730;2023-06-04T13:16:46;14.00;;;3.30;;
42514;SDS011;28144;49.920;18.730;2023-06-04T13:19:23;5.30;;;2.22;;
42514;SDS011;28144;49.920;18.730;2023-06-04T13:21:48;9.18;;;2.33;;
42514;SDS011;28144;49.920;18.730;2023-06-04T13:24:14;4.30;;;2.80;;
42514;SDS011;28144;49.920;18.730;2023-06-04T13:26:40;8.23;;;2.38;;
42514;SDS011;28144;49.920;18.730;2023-06-04T13:29:07;3.90;;;2.20;;
42514;SDS011;28144;49.920;18.730;2023-06-04T13:31:33;6.70;;;2.35;;
42514;SDS011;28144;49.920;18.730;2023-06-04T13:33:58;11.00;;;6.78;;
42514;SDS011;28144;49.920;18.730;2023-06-04T13:36:24;4.00;;;2.25;;
42514;SDS011;28144;49.920;18.730;2023-06-04T13:38:50;14.10;;;9.13;;
42514;SDS011;28144;49.920;18.730;2023-06-04T13:41:17;5.00;;;2.80;;
42514;SDS011;28144;49.920;18.730;2023-06-04T13:43:43;7.18;;;2.60;;
42514;SDS011;28144;49.920;18.730;2023-06-04T13:46:09;6.70;;;2.30;;
42514;SDS011;28144;49.920;18.730;2023-06-04T13:48:35;9.68;;;3.17;;
42514;SDS011;28144;49.920;18.730;2023-06-04T13:51:01;6.13;;;2.45;;
42514;SDS011;28144;49.920;18.730;2023-06-04T13:53:27;12.43;;;8.48;;
42514;SDS011;28144;49.920;18.730;2023-06-04T13:55:52;9.68;;;3.00;;
42514;SDS011;28144;49.920;18.730;2023-06-04T13:58:24;9.80;;;3.05;;
42514;SDS011;28144;49.920;18.730;2023-06-04T14:00:50;10.65;;;2.70;;
42514;SDS011;28144;49.920;18.730;2023-06-04T14:03:16;22.88;;;13.90;;
42514;SDS011;28144;49.920;18.730;2023-06-04T14:05:41;5.47;;;2.63;;
42514;SDS011;28144;49.920;18.730;2023-06-04T14:08:07;3.55;;;2.17;;
42514;SDS011;28144;49.920;18.730;2023-06-04T14:10:33;7.60;;;2.03;;
42514;SDS011;28144;49.920;18.730;2023-06-04T14:12:59;4.95;;;2.45;;
42514;SDS011;28144;49.920;18.730;2023-06-04T14:15:26;2.58;;;1.98;;
42514;SDS011;28144;49.920;18.730;2023-06-04T14:17:52;6.95;;;2.40;;
42514;SDS011;28144;49.920;18.730;2023-06-04T14:20:18;7.03;;;2.20;;
42514;SDS011;28144;49.920;18.730;2023-06-04T14:22:44;8.18;;;1.88;;
42514;SDS011;28144;49.920;18.730;2023-06-04T14:25:09;5.60;;;2.23;;
42514;SDS011;28144;49.920;18.730;2023-06-04T14:27:35;6.00;;;2.35;;
42514;SDS011;28144;49.920;18.730;2023-06-04T14:30:02;4.60;;;2.20;;
42514;SDS011;28144;49.920;18.730;2023-06-04T14:32:28;5.97;;;2.28;;
42514;SDS011;28144;49.920;18.730;2023-06-04T14:34:54;6.22;;;1.95;;
42514;SDS011;28144;49.920;18.730;2023-06-04T14:39:46;5.63;;;1.88;;
42514;SDS011;28144;49.920;18.730;2023-06-04T14:47:04;4.78;;;2.60;;
42514;SDS011;28144;49.920;18.730;2023-06-04T14:54:21;7.65;;;2.15;;
42514;SDS011;28144;49.920;18.730;2023-06-04T14:56:47;3.20;;;2.05;;
42514;SDS011;28144;49.920;18.730;2023-06-04T14:59:12;4.93;;;1.88;;
42514;SDS011;28144;49.920;18.730;2023-06-04T15:01:38;4.27;;;2.20;;
42514;SDS011;28144;49.920;18.730;2023-06-04T15:04:05;2.50;;;1.70;;
42514;SDS011;28144;49.920;18.730;2023-06-04T15:06:31;3.70;;;1.95;;
42514;SDS011;28144;49.920;18.730;2023-06-04T15:08:57;3.83;;;1.70;;
42514;SDS011;28144;49.920;18.730;2023-06-04T15:11:23;3.17;;;1.65;;
42514;SDS011;28144;49.920;18.730;2023-06-04T15:13:49;4.63;;;2.17;;